Time;durP1;ratioP1;P1;durP2;ratioP2;P2;SDS_P1;SDS_P2;PMS_P1;PMS_P2;Temp;Humidity;BMP_temperature;BMP_pressure;BME280_temperature;BME280_humidity;BME280_pressure;Samples;Min_cycle;Max_cycle;Signal;HPM_P1;HPM_P2
2023/06/06 00:01:12;;;;;;;13.32;6.80;;;;;;;;;;10552270;28;20050;-76
2023/06/06 00:06:20;;;;;;;12.32;6.40;;;;;;;;;;10548751;28;20033;-75
2023/06/06 00:11:23;;;;;;;12.52;6.05;;;;;;;;;;10548357;28;20028;-75
2023/06/06 00:16:27;;;;;;;13.47;6.67;;;;;;;;;;10555508;28;20070;-75
2023/06/06 00:21:32;;;;;;;13.95;6.65;;;;;;;;;;10551449;28;20036;-75
2023/06/06 00:26:36;;;;;;;16.77;7.65;;;;;;;;;;10553034;28;20046;-77
2023/06/06 00:31:38;;;;;;;17.13;7.93;;;;;;;;;;10558530;28;20109;-77
2023/06/06 00:36:42;;;;;;;18.10;8.35;;;;;;;;;;10548943;28;20074;-75
2023/06/06 00:41:46;;;;;;;14.93;6.82;;;;;;;;;;10550054;28;20040;-75
2023/06/06 00:46:50;;;;;;;13.75;6.88;;;;;;;;;;10546462;28;20063;-75
2023/06/06 00:51:55;;;;;;;16.30;7.53;;;;;;;;;;10539442;28;20365;-74
2023/06/06 00:56:58;;;;;;;17.48;8.38;;;;;;;;;;10545660;28;20271;-75
2023/06/06 01:02:03;;;;;;;17.65;7.63;;;;;;;;;;10545200;28;20050;-76
2023/06/06 01:07:09;;;;;;;18.40;8.00;;;;;;;;;;10547914;28;20059;-74
2023/06/06 01:12:16;;;;;;;17.90;7.85;;;;;;;;;;10531337;28;20149;-75
2023/06/06 01:17:21;;;;;;;19.83;7.90;;;;;;;;;;10547643;28;20055;-75
2023/06/06 01:22:27;;;;;;;14.50;6.93;;;;;;;;;;10534418;28;20066;-74
2023/06/06 01:27:33;;;;;;;16.52;7.00;;;;;;;;;;10548238;28;20050;-75
2023/06/06 01:32:38;;;;;;;16.48;7.82;;;;;;;;;;10548711;28;20067;-75
2023/06/06 01:37:45;;;;;;;15.52;8.02;;;;;;;;;;10550414;28;20043;-75
2023/06/06 01:42:50;;;;;;;14.82;7.43;;;;;;;;;;10548461;28;20073;-76
2023/06/06 01:47:53;;;;;;;18.92;7.80;;;;;;;;;;10543807;28;20063;-74
2023/06/06 01:52:57;;;;;;;17.40;8.30;;;;;;;;;;10532969;28;20044;-74
2023/06/06 01:58:00;;;;;;;17.48;8.50;;;;;;;;;;10550596;28;20063;-74
2023/06/06 02:03:03;;;;;;;16.63;8.33;;;;;;;;;;10566025;28;20071;-75
2023/06/06 02:08:08;;;;;;;15.15;8.27;;;;;;;;;;10536864;28;20061;-77
2023/06/06 02:13:11;;;;;;;17.67;8.23;;;;;;;;;;10556369;28;20055;-76
2023/06/06 02:18:14;;;;;;;18.65;8.77;;;;;;;;;;10552863;28;20044;-74
2023/06/06 02:23:19;;;;;;;17.27;8.90;;;;;;;;;;10556703;28;20028;-74
2023/06/06 02:28:23;;;;;;;17.52;8.18;;;;;;;;;;10560258;28;20050;-75
2023/06/06 02:33:26;;;;;;;15.82;8.38;;;;;;;;;;10552661;28;20044;-76
2023/06/06 02:38:30;;;;;;;13.27;7.03;;;;;;;;;;10548539;28;20044;-74
2023/06/06 02:43:33;;;;;;;12.18;5.53;;;;;;;;;;10554450;28;20282;-74
2023/06/06 02:48:36;;;;;;;6.97;3.95;;;;;;;;;;10562985;28;20051;-75
2023/06/06 02:53:41;;;;;;;6.60;3.70;;;;;;;;;;10548545;28;20074;-75
2023/06/06 02:58:44;;;;;;;7.55;3.63;;;;;;;;;;10555111;28;20047;-74
2023/06/06 03:03:46;;;;;;;7.20;3.40;;;;;;;;;;10553946;28;20141;-74
2023/06/06 03:08:55;;;;;;;5.53;3.40;;;;;;;;;;10551888;28;20064;-75
2023/06/06 03:13:58;;;;;;;5.88;3.45;;;;;;;;;;10554480;28;20302;-75
2023/06/06 03:19:01;;;;;;;5.18;3.28;;;;;;;;;;10533641;28;20510;-75
2023/06/06 03:24:05;;;;;;;6.05;3.10;;;;;;;;;;10552663;28;20135;-74
2023/06/06 03:29:08;;;;;;;6.20;2.97;;;;;;;;;;10552705;28;20054;-75
2023/06/06 03:34:11;;;;;;;5.23;3.13;;;;;;;;;;10554906;28;20083;-75
2023/06/06 03:39:15;;;;;;;5.60;3.20;;;;;;;;;;10553094;28;20298;-75
2023/06/06 03:44:17;;;;;;;7.32;3.40;;;;;;;;;;10547043;28;21485;-76
2023/06/06 03:49:20;;;;;;;6.07;3.33;;;;;;;;;;10554010;28;20070;-76
2023/06/06 03:54:25;;;;;;;6.85;3.63;;;;;;;;;;10554890;28;20044;-76
2023/06/06 03:59:28;;;;;;;5.70;3.17;;;;;;;;;;10555805;28;20036;-75
2023/06/06 04:04:32;;;;;;;7.47;3.50;;;;;;;;;;10555145;28;20052;-75
2023/06/06 04:09:36;;;;;;;6.18;3.38;;;;;;;;;;10550228;28;20036;-75
2023/06/06 04:14:39;;;;;;;5.93;3.40;;;;;;;;;;10549085;28;20089;-75
2023/06/06 04:19:41;;;;;;;7.28;3.63;;;;;;;;;;10548283;28;20090;-76
2023/06/06 04:24:46;;;;;;;6.57;4.13;;;;;;;;;;10550394;28;20054;-75
2023/06/06 04:29:50;;;;;;;7.07;3.72;;;;;;;;;;10548987;28;20044;-75
2023/06/06 04:34:57;;;;;;;5.75;3.63;;;;;;;;;;10548786;28;20421;-75
2023/06/06 04:40:04;;;;;;;7.95;3.72;;;;;;;;;;10550148;28;20112;-75
2023/06/06 04:45:07;;;;;;;7.07;4.25;;;;;;;;;;10548616;28;20044;-75
2023/06/06 04:50:10;;;;;;;;;;;;;;;;;;10551743;28;20036;-75
2023/06/06 04:55:15;;;;;;;7.97;4.03;;;;;;;;;;10550511;28;19920;-75
2023/06/06 05:00:18;;;;;;;6.25;3.85;;;;;;;;;;10551476;28;20062;-76
2023/06/06 05:05:22;;;;;;;7.77;4.17;;;;;;;;;;10549770;28;20036;-76
2023/06/06 05:10:26;;;;;;;9.02;4.45;;;;;;;;;;10549733;28;20040;-75
2023/06/06 05:15:29;;;;;;;7.25;4.20;;;;;;;;;;10553547;28;20040;-75
2023/06/06 05:20:32;;;;;;;9.55;4.95;;;;;;;;;;10545166;28;20063;-75
2023/06/06 05:25:36;;;;;;;7.93;4.77;;;;;;;;;;10550839;28;20051;-74
2023/06/06 05:30:38;;;;;;;9.30;4.50;;;;;;;;;;10550494;28;20064;-75
2023/06/06 05:35:41;;;;;;;8.23;5.07;;;;;;;;;;10558779;28;20058;-75
2023/06/06 05:40:45;;;;;;;10.45;5.80;;;;;;;;;;10558749;28;20097;-77
2023/06/06 05:45:48;;;;;;;8.73;5.15;;;;;;;;;;10555685;28;20093;-77
2023/06/06 05:50:50;;;;;;;10.07;5.10;;;;;;;;;;10554723;28;20051;-76
2023/06/06 05:55:54;;;;;;;12.25;5.40;;;;;;;;;;10563419;28;20693;-75
2023/06/06 06:00:57;;;;;;;12.57;5.72;;;;;;;;;;10557702;28;20077;-83
2023/06/06 06:06:04;;;;;;;10.40;5.73;;;;;;;;;;10540913;28;20109;-80
2023/06/06 06:11:10;;;;;;;11.13;6.28;;;;;;;;;;10553200;28;20047;-81
2023/06/06 06:16:17;;;;;;;17.98;6.32;;;;;;;;;;10554642;28;20044;-81
2023/06/06 06:21:21;;;;;;;10.20;5.78;;;;;;;;;;10551725;28;20042;-78
2023/06/06 06:26:25;;;;;;;8.82;4.78;;;;;;;;;;10551697;28;20052;-80
2023/06/06 06:31:28;;;;;;;10.77;5.70;;;;;;;;;;10552940;28;20036;-81
2023/06/06 06:36:31;;;;;;;10.93;4.67;;;;;;;;;;10553034;28;20148;-82
2023/06/06 06:41:35;;;;;;;10.23;5.10;;;;;;;;;;10550098;28;20036;-79
2023/06/06 06:46:38;;;;;;;11.57;5.00;;;;;;;;;;10553190;28;20066;-80
2023/06/06 06:51:41;;;;;;;13.05;5.68;;;;;;;;;;10556230;28;20032;-79
2023/06/06 06:56:45;;;;;;;9.45;4.65;;;;;;;;;;10553794;28;20556;-80
2023/06/06 07:01:49;;;;;;;10.23;5.63;;;;;;;;;;10550215;28;20032;-78
2023/06/06 07:06:51;;;;;;;;;;;;;;;;;;10557282;28;20043;-79
2023/06/06 07:11:55;;;;;;;10.52;5.32;;;;;;;;;;10551784;28;19919;-80
2023/06/06 07:16:58;;;;;;;10.02;4.85;;;;;;;;;;10536532;28;20354;-80
2023/06/06 07:22:03;;;;;;;8.63;4.85;;;;;;;;;;10551294;28;20048;-80
2023/06/06 07:27:08;;;;;;;10.07;6.05;;;;;;;;;;10552032;28;20036;-79
2023/06/06 07:32:11;;;;;;;10.85;5.20;;;;;;;;;;10552985;28;20063;-81
2023/06/06 07:37:13;;;;;;;10.47;5.23;;;;;;;;;;10554023;28;20119;-83
2023/06/06 07:42:17;;;;;;;10.33;5.00;;;;;;;;;;10555941;28;20127;-82
2023/06/06 07:47:23;;;;;;;7.18;4.45;;;;;;;;;;10553963;28;20095;-80
2023/06/06 07:52:26;;;;;;;11.23;5.03;;;;;;;;;;10550709;28;20099;-80
2023/06/06 07:57:30;;;;;;;11.07;5.70;;;;;;;;;;10552520;28;20112;-81
2023/06/06 08:02:33;;;;;;;8.27;4.70;;;;;;;;;;10552773;28;20044;-80
2023/06/06 08:07:36;;;;;;;7.97;4.53;;;;;;;;;;10550781;28;20055;-80
2023/06/06 08:12:40;;;;;;;9.07;4.40;;;;;;;;;;10548316;28;20459;-82
2023/06/06 08:17:44;;;;;;;8.30;4.90;;;;;;;;;;10550673;28;20089;-80
2023/06/06 08:22:51;;;;;;;7.20;4.03;;;;;;;;;;10560324;28;20035;-81
2023/06/06 08:27:58;;;;;;;7.10;4.20;;;;;;;;;;10556671;28;20105;-81
2023/06/06 08:33:00;;;;;;;8.30;4.15;;;;;;;;;;10555753;28;20046;-80
2023/06/06 08:38:03;;;;;;;6.47;3.55;;;;;;;;;;10557379;28;20047;-80
2023/06/06 08:43:09;;;;;;;4.50;2.57;;;;;;;;;;10550385;28;20071;-80
2023/06/06 08:48:13;;;;;;;7.57;3.35;;;;;;;;;;10550049;28;20040;-80
2023/06/06 08:53:16;;;;;;;4.18;2.75;;;;;;;;;;10552783;28;20032;-81
2023/06/06 08:58:20;;;;;;;6.73;3.57;;;;;;;;;;10552022;28;20209;-80
2023/06/06 09:03:23;;;;;;;4.55;2.95;;;;;;;;;;10550101;28;20262;-80
2023/06/06 09:08:26;;;;;;;5.43;2.47;;;;;;;;;;10551704;28;20040;-80
2023/06/06 09:13:30;;;;;;;5.43;2.75;;;;;;;;;;10557064;28;20103;-82
2023/06/06 09:18:35;;;;;;;5.57;2.72;;;;;;;;;;10559165;28;20123;-81
2023/06/06 09:23:37;;;;;;;4.47;2.60;;;;;;;;;;10556774;28;20072;-78
2023/06/06 09:28:41;;;;;;;5.93;2.70;;;;;;;;;;10556584;28;20052;-79
2023/06/06 09:33:44;;;;;;;5.75;3.70;;;;;;;;;;10553289;28;20048;-80
2023/06/06 09:38:47;;;;;;;4.38;2.88;;;;;;;;;;10564084;28;20040;-80
2023/06/06 09:43:51;;;;;;;3.03;2.63;;;;;;;;;;10551238;28;20032;-81
2023/06/06 09:48:58;;;;;;;4.55;2.20;;;;;;;;;;10561662;28;20112;-81
2023/06/06 09:54:01;;;;;;;3.65;2.33;;;;;;;;;;10565331;28;20040;-82
2023/06/06 09:59:06;;;;;;;3.72;2.63;;;;;;;;;;10549595;28;20047;-81
2023/06/06 10:04:10;;;;;;;2.65;2.25;;;;;;;;;;10553959;28;20103;-80
2023/06/06 10:09:13;;;;;;;2.55;2.35;;;;;;;;;;10551887;28;20047;-80
2023/06/06 10:14:18;;;;;;;4.68;2.70;;;;;;;;;;10553018;28;20040;-81
2023/06/06 10:19:22;;;;;;;4.30;2.20;;;;;;;;;;10553502;28;20597;-81
2023/06/06 10:24:26;;;;;;;5.07;2.20;;;;;;;;;;10554973;28;20142;-81
2023/06/06 10:29:32;;;;;;;2.55;2.33;;;;;;;;;;10555087;28;20040;-82
2023/06/06 10:34:39;;;;;;;3.50;2.35;;;;;;;;;;10559809;28;20114;-82
2023/06/06 10:39:47;;;;;;;3.20;2.55;;;;;;;;;;10548699;28;20099;-82
2023/06/06 10:44:58;;;;;;;2.40;2.20;;;;;;;;;;10546942;28;20044;-80
2023/06/06 10:50:19;;;;;;;3.83;2.38;;;;;;;;;;10550857;28;20101;-82
2023/06/06 10:55:39;;;;;;;2.85;2.25;;;;;;;;;;10552857;28;20032;-80
2023/06/06 11:00:44;;;;;;;4.57;2.97;;;;;;;;;;10548269;28;20123;-81
2023/06/06 11:06:07;;;;;;;3.40;2.55;;;;;;;;;;10555169;28;20043;-82
2023/06/06 11:11:23;;;;;;;3.00;2.70;;;;;;;;;;10552496;28;20059;-82
2023/06/06 11:16:44;;;;;;;3.70;3.08;;;;;;;;;;10554280;28;20040;-83
2023/06/06 11:21:49;;;;;;;4.22;2.53;;;;;;;;;;10551157;28;20096;-82
2023/06/06 11:26:52;;;;;;;5.25;2.90;;;;;;;;;;10551647;28;20078;-80
2023/06/06 11:31:55;;;;;;;4.32;2.83;;;;;;;;;;10559893;28;20047;-81
2023/06/06 11:36:59;;;;;;;4.82;3.10;;;;;;;;;;10559518;28;20044;-81
2023/06/06 11:42:01;;;;;;;3.53;2.60;;;;;;;;;;10557422;28;20438;-81
2023/06/06 11:47:08;;;;;;;4.80;3.40;;;;;;;;;;10556834;28;20108;-80
2023/06/06 11:52:13;;;;;;;4.43;3.67;;;;;;;;;;10559289;28;20057;-80
2023/06/06 11:57:17;;;;;;;5.85;3.50;;;;;;;;;;10554711;28;20042;-81
2023/06/06 12:02:20;;;;;;;5.20;3.22;;;;;;;;;;10553025;28;20078;-81
2023/06/06 12:07:24;;;;;;;5.13;3.35;;;;;;;;;;10567524;28;20090;-81
2023/06/06 12:12:27;;;;;;;5.70;2.80;;;;;;;;;;10553943;28;20100;-80
2023/06/06 12:17:30;;;;;;;6.20;3.28;;;;;;;;;;10555626;28;20261;-81
2023/06/06 12:22:35;;;;;;;3.85;2.80;;;;;;;;;;10552250;28;20040;-81
2023/06/06 12:27:38;;;;;;;3.70;3.10;;;;;;;;;;10557512;28;20051;-80
2023/06/06 12:32:41;;;;;;;9.32;2.85;;;;;;;;;;10554724;28;20035;-80
2023/06/06 12:37:45;;;;;;;4.25;2.60;;;;;;;;;;10534005;28;20108;-80
2023/06/06 12:42:51;;;;;;;7.18;2.80;;;;;;;;;;10549897;28;20040;-80
2023/06/06 12:47:56;;;;;;;6.85;2.75;;;;;;;;;;10554872;28;20044;-79
2023/06/06 12:53:00;;;;;;;4.63;3.20;;;;;;;;;;10550403;28;20044;-80
2023/06/06 12:58:03;;;;;;;5.18;3.00;;;;;;;;;;10543505;28;20044;-80
2023/06/06 13:03:09;;;;;;;5.05;2.70;;;;;;;;;;10552643;28;20059;-80
2023/06/06 13:08:14;;;;;;;6.13;3.08;;;;;;;;;;10532169;28;20084;-80
2023/06/06 13:13:38;;;;;;;5.43;3.15;;;;;;;;;;10558656;28;20035;-80
2023/06/06 13:18:40;;;;;;;5.72;2.72;;;;;;;;;;10553628;28;20135;-80
2023/06/06 13:23:44;;;;;;;5.57;3.10;;;;;;;;;;10555134;28;20360;-79
2023/06/06 13:28:47;;;;;;;4.68;2.90;;;;;;;;;;10552548;28;20093;-79
2023/06/06 13:33:50;;;;;;;4.75;2.90;;;;;;;;;;10549499;28;20140;-80
2023/06/06 13:38:54;;;;;;;3.80;2.95;;;;;;;;;;10546703;28;20048;-80
2023/06/06 13:43:59;;;;;;;5.90;3.03;;;;;;;;;;10545528;28;20064;-79
2023/06/06 13:49:02;;;;;;;7.38;3.00;;;;;;;;;;10549662;28;20110;-80
2023/06/06 13:54:06;;;;;;;5.95;3.15;;;;;;;;;;10554064;28;20066;-79
2023/06/06 13:59:09;;;;;;;7.30;2.97;;;;;;;;;;10554253;28;20490;-79
2023/06/06 14:04:12;;;;;;;4.00;2.83;;;;;;;;;;10551075;28;20046;-79
2023/06/06 14:09:18;;;;;;;3.92;2.88;;;;;;;;;;10556015;28;20050;-80
2023/06/06 14:14:21;;;;;;;3.90;2.72;;;;;;;;;;10557827;28;20064;-80
2023/06/06 14:19:36;;;;;;;3.92;2.60;;;;;;;;;;10534565;28;20123;-80
2023/06/06 14:24:40;;;;;;;6.15;2.70;;;;;;;;;;10555911;28;20054;-80
2023/06/06 14:29:43;;;;;;;3.85;2.50;;;;;;;;;;10553095;28;21058;-78
2023/06/06 14:34:47;;;;;;;3.78;2.78;;;;;;;;;;10554319;28;20036;-78
2023/06/06 14:39:51;;;;;;;7.03;2.53;;;;;;;;;;10554893;28;20043;-79
2023/06/06 14:44:54;;;;;;;6.20;3.50;;;;;;;;;;10551640;28;20127;-78
2023/06/06 14:49:57;;;;;;;5.03;2.80;;;;;;;;;;10559624;28;20047;-78
2023/06/06 14:55:01;;;;;;;5.35;2.60;;;;;;;;;;10555929;28;20032;-77
2023/06/06 15:00:04;;;;;;;5.47;2.47;;;;;;;;;;10552076;28;20051;-78
2023/06/06 15:05:07;;;;;;;6.00;2.65;;;;;;;;;;10552413;28;20486;-78
2023/06/06 15:10:12;;;;;;;3.47;2.38;;;;;;;;;;10553991;28;20044;-77
2023/06/06 15:15:14;;;;;;;8.48;2.83;;;;;;;;;;10551746;28;20060;-78
2023/06/06 15:20:17;;;;;;;5.00;2.60;;;;;;;;;;10553087;28;20180;-78
2023/06/06 15:25:21;;;;;;;5.10;2.65;;;;;;;;;;10551546;28;20043;-76
2023/06/06 15:30:24;;;;;;;4.60;2.45;;;;;;;;;;10553914;28;20107;-77
2023/06/06 15:35:26;;;;;;;3.65;2.28;;;;;;;;;;10554821;28;20056;-78
2023/06/06 15:40:30;;;;;;;;;;;;;;;;;;10552528;28;20048;-76
2023/06/06 15:45:34;;;;;;;4.30;2.55;;;;;;;;;;10554983;28;20360;-77
2023/06/06 15:50:36;;;;;;;6.10;2.75;;;;;;;;;;10552122;28;20512;-78
2023/06/06 15:55:40;;;;;;;;;;;;;;;;;;10553081;28;20481;-76
2023/06/06 16:00:42;;;;;;;;;;;;;;;;;;10549817;28;19951;-77
2023/06/06 16:05:46;;;;;;;4.38;2.25;;;;;;;;;;10550466;28;20609;-78
2023/06/06 16:10:48;;;;;;;2.80;2.13;;;;;;;;;;10552538;28;20067;-77
2023/06/06 16:15:51;;;;;;;3.33;2.28;;;;;;;;;;10550134;28;20020;-78
2023/06/06 16:21:02;;;;;;;2.78;1.92;;;;;;;;;;10550178;28;20040;-79
2023/06/06 16:26:04;;;;;;;3.42;2.05;;;;;;;;;;10550463;28;20043;-77
2023/06/06 16:31:07;;;;;;;;;;;;;;;;;;10554058;28;20044;-78
2023/06/06 16:36:11;;;;;;;2.92;2.30;;;;;;;;;;10550066;28;19920;-77
2023/06/06 16:41:14;;;;;;;2.97;2.40;;;;;;;;;;10546744;28;20249;-77
2023/06/06 16:46:17;;;;;;;3.90;2.30;;;;;;;;;;10543890;28;20114;-75
2023/06/06 16:51:21;;;;;;;3.53;2.10;;;;;;;;;;10547606;28;20047;-78
2023/06/06 16:56:26;;;;;;;4.25;2.47;;;;;;;;;;10531761;28;20032;-78
2023/06/06 17:01:29;;;;;;;4.80;2.40;;;;;;;;;;10549190;28;20059;-76
2023/06/06 17:06:33;;;;;;;5.30;2.72;;;;;;;;;;10547091;28;20046;-77
2023/06/06 17:11:35;;;;;;;4.57;2.65;;;;;;;;;;10548332;28;20032;-76
2023/06/06 17:16:38;;;;;;;6.47;2.88;;;;;;;;;;10548545;28;20035;-77
2023/06/06 17:21:42;;;;;;;7.95;3.03;;;;;;;;;;10549536;28;20040;-78
2023/06/06 17:26:45;;;;;;;5.40;3.00;;;;;;;;;;10539012;28;20169;-76
2023/06/06 17:31:47;;;;;;;6.47;2.60;;;;;;;;;;10560348;28;20095;-77
2023/06/06 17:36:51;;;;;;;5.50;3.20;;;;;;;;;;10541078;28;20060;-76
2023/06/06 17:41:54;;;;;;;4.90;2.70;;;;;;;;;;10562603;28;20055;-75
2023/06/06 17:46:57;;;;;;;4.65;2.70;;;;;;;;;;10557938;28;20119;-76
2023/06/06 17:52:01;;;;;;;6.65;3.10;;;;;;;;;;10558358;28;20044;-78
2023/06/06 17:57:04;;;;;;;3.38;2.55;;;;;;;;;;10560621;28;20044;-77
2023/06/06 18:02:07;;;;;;;3.95;2.70;;;;;;;;;;10544354;28;20063;-77
2023/06/06 18:07:11;;;;;;;3.90;2.08;;;;;;;;;;10554951;28;20115;-77
2023/06/06 18:12:14;;;;;;;4.63;2.33;;;;;;;;;;10569776;28;20046;-77
2023/06/06 18:17:17;;;;;;;5.75;2.80;;;;;;;;;;10552604;28;20036;-77
2023/06/06 18:22:22;;;;;;;2.87;1.87;;;;;;;;;;10562769;28;20643;-78
2023/06/06 18:27:24;;;;;;;5.05;2.28;;;;;;;;;;10555790;28;20063;-76
2023/06/06 18:32:27;;;;;;;4.20;2.20;;;;;;;;;;10558972;28;20063;-76
2023/06/06 18:37:31;;;;;;;4.10;2.25;;;;;;;;;;10555712;28;20493;-83
2023/06/06 18:42:35;;;;;;;6.35;2.42;;;;;;;;;;10555969;28;20048;-77
2023/06/06 18:47:37;;;;;;;5.57;2.47;;;;;;;;;;10552792;28;20032;-77
2023/06/06 18:52:42;;;;;;;5.50;2.80;;;;;;;;;;10557454;28;20079;-78
2023/06/06 18:57:45;;;;;;;2.22;1.83;;;;;;;;;;10557814;28;20297;-77
2023/06/06 19:02:47;;;;;;;6.45;2.25;;;;;;;;;;10554934;28;20117;-80
2023/06/06 19:07:52;;;;;;;8.18;3.40;;;;;;;;;;10556644;28;20055;-78
2023/06/06 19:12:54;;;;;;;4.15;2.30;;;;;;;;;;10555568;28;20036;-76
2023/06/06 19:17:57;;;;;;;4.37;2.60;;;;;;;;;;10557497;28;20062;-77
2023/06/06 19:23:01;;;;;;;12.15;3.05;;;;;;;;;;10559993;28;20095;-77
2023/06/06 19:28:04;;;;;;;4.63;2.67;;;;;;;;;;10555234;28;20036;-78
2023/06/06 19:33:08;;;;;;;3.40;2.08;;;;;;;;;;10554631;28;20036;-78
2023/06/06 19:38:12;;;;;;;2.85;1.70;;;;;;;;;;10560165;28;20378;-77
2023/06/06 19:43:15;;;;;;;3.33;2.30;;;;;;;;;;10554392;28;20062;-76
2023/06/06 19:48:18;;;;;;;4.00;2.13;;;;;;;;;;10551724;28;20028;-77
2023/06/06 19:53:22;;;;;;;5.78;3.15;;;;;;;;;;10550717;28;20040;-77
2023/06/06 19:58:25;;;;;;;4.88;1.90;;;;;;;;;;10551619;28;20054;-78
2023/06/06 20:03:28;;;;;;;4.97;2.80;;;;;;;;;;10550961;28;20059;-78
2023/06/06 20:08:32;;;;;;;8.67;2.67;;;;;;;;;;10547633;28;20036;-77
2023/06/06 20:13:35;;;;;;;4.70;2.65;;;;;;;;;;10553668;28;20328;-76
2023/06/06 20:18:37;;;;;;;3.77;2.17;;;;;;;;;;10550873;28;20036;-74
2023/06/06 20:23:41;;;;;;;5.03;2.90;;;;;;;;;;10554340;28;20118;-75
2023/06/06 20:28:44;;;;;;;3.85;2.60;;;;;;;;;;10546985;28;20156;-74
2023/06/06 20:33:47;;;;;;;5.45;2.90;;;;;;;;;;10553078;28;20476;-73
2023/06/06 20:38:51;;;;;;;8.27;3.38;;;;;;;;;;10550834;28;20488;-75
2023/06/06 20:43:54;;;;;;;11.30;5.93;;;;;;;;;;10566044;28;20055;-75
2023/06/06 20:48:57;;;;;;;14.15;6.30;;;;;;;;;;10550148;28;20044;-75
2023/06/06 20:54:01;;;;;;;6.30;4.03;;;;;;;;;;10553806;28;20052;-74
2023/06/06 20:59:04;;;;;;;8.32;4.45;;;;;;;;;;10551467;28;20106;-75
2023/06/06 21:04:07;;;;;;;7.03;4.20;;;;;;;;;;10557862;28;20056;-73
2023/06/06 21:09:12;;;;;;;7.15;4.65;;;;;;;;;;10562373;28;20083;-75
2023/06/06 21:14:15;;;;;;;7.15;4.78;;;;;;;;;;10558081;28;20048;-74
2023/06/06 21:19:17;;;;;;;8.07;4.57;;;;;;;;;;10559468;28;20059;-75
2023/06/06 21:24:21;;;;;;;7.10;4.30;;;;;;;;;;10555680;28;20083;-76
2023/06/06 21:29:24;;;;;;;18.25;7.43;;;;;;;;;;10559952;28;20104;-75
2023/06/06 21:34:27;;;;;;;7.60;4.13;;;;;;;;;;10554525;28;20063;-75
2023/06/06 21:39:31;;;;;;;16.00;7.67;;;;;;;;;;10554347;28;20063;-74
2023/06/06 21:44:33;;;;;;;4.43;3.33;;;;;;;;;;10553733;28;20444;-73
2023/06/06 21:49:36;;;;;;;6.13;3.97;;;;;;;;;;10555591;28;20058;-73
2023/06/06 21:54:40;;;;;;;8.80;4.07;;;;;;;;;;10561366;28;20118;-76
2023/06/06 21:59:44;;;;;;;7.32;4.20;;;;;;;;;;10536062;28;20067;-76
2023/06/06 22:04:48;;;;;;;7.97;4.40;;;;;;;;;;10559619;28;20131;-75
2023/06/06 22:09:53;;;;;;;9.00;4.60;;;;;;;;;;10559510;28;20268;-77
2023/06/06 22:14:56;;;;;;;7.47;4.22;;;;;;;;;;10553950;28;20109;-74
2023/06/06 22:20:00;;;;;;;6.55;4.05;;;;;;;;;;10556127;28;20064;-74
2023/06/06 22:25:03;;;;;;;;;;;;;;;;;;10556102;28;20040;-75
2023/06/06 22:30:08;;;;;;;5.50;3.60;;;;;;;;;;10560025;28;20336;-74
2023/06/06 22:35:11;;;;;;;7.30;4.20;;;;;;;;;;10554276;28;20116;-75
2023/06/06 22:40:14;;;;;;;7.35;4.35;;;;;;;;;;10555237;28;20044;-76
2023/06/06 22:45:18;;;;;;;8.47;4.43;;;;;;;;;;10557514;28;20680;-75
2023/06/06 22:50:21;;;;;;;8.57;4.25;;;;;;;;;;10557277;28;20063;-77
2023/06/06 22:55:23;;;;;;;8.70;4.60;;;;;;;;;;10553804;28;20067;-74
2023/06/06 23:00:28;;;;;;;7.63;4.60;;;;;;;;;;10562994;28;20118;-75
2023/06/06 23:05:30;;;;;;;8.52;4.60;;;;;;;;;;10556628;28;20096;-75
2023/06/06 23:10:33;;;;;;;12.48;6.13;;;;;;;;;;10549086;28;20127;-75
2023/06/06 23:15:38;;;;;;;7.45;4.88;;;;;;;;;;10552352;28;20036;-76
2023/06/06 23:20:41;;;;;;;8.55;5.25;;;;;;;;;;10554042;28;20070;-75
2023/06/06 23:25:44;;;;;;;11.30;5.77;;;;;;;;;;10552419;28;20056;-74
2023/06/06 23:30:48;;;;;;;9.00;4.72;;;;;;;;;;10551407;28;20079;-76
2023/06/06 23:35:50;;;;;;;9.27;4.30;;;;;;;;;;10556325;28;20044;-74
2023/06/06 23:40:53;;;;;;;9.80;5.05;;;;;;;;;;10553165;28;20052;-73
2023/06/06 23:45:57;;;;;;;8.93;5.28;;;;;;;;;;10554699;28;20115;-74
2023/06/06 23:50:59;;;;;;;10.73;5.20;;;;;;;;;;10552406;28;20130;-74
2023/06/06 23:56:02;;;;;;;7.97;4.93;;;;;;;;;;10550719;28;20040;-75
